Terminal Aerodrome Forecast
Issued by NWS

Home | Current Version | Previous Version | Graphics & Text | Print | Product List | Glossary On
Versions: 1 2 3 4 5 6 7 8 9 10 11 12 13 14 15 16 17 18 19 20 21 22 23 24 25 26 27 28 29
000
FTUS43 KGRB 252325
TAFATW
TAF
KATW 252325Z 2600/2624 09010G19KT 6SM -SHRA BR SCT035 OVC060
      TEMPO 2600/2604 3SM -TSRA SCT025 OVC035CB
     FM260600 18005KT 5SM BR SCT020 BKN035
     FM261000 18004KT 3SM BR BKN010
     FM261500 21010G17KT P6SM SCT025 BKN040 PROB30 2615/2618 5SM
      -TSRA BKN025CB=

USA.gov is the U.S. government's official web portal to all federal, state and local government web resources and services.